Time;durP1;ratioP1;P1;durP2;ratioP2;P2;SDS_P1;SDS_P2;PMS_P1;PMS_P2;Temp;Humidity;BMP_temperature;BMP_pressure;BME280_temperature;BME280_humidity;BME280_pressure;Samples;Min_cycle;Max_cycle;Signal;HPM_P1;HPM_P2
2021/03/06 04:11:24;;;;;;;0.60;0.60;;;-2.00;99.90;;;;;;5052757;28;20775;-64
2021/03/06 04:13:50;;;;;;;0.93;0.85;;;-1.90;99.90;;;;;;5054033;28;20033;-64
2021/03/06 04:16:15;;;;;;;1.02;0.93;;;-1.90;99.90;;;;;;5053708;28;20096;-64
2021/03/06 04:18:41;;;;;;;3.88;0.93;;;-1.90;99.90;;;;;;5054032;28;20026;-64
2021/03/06 04:21:07;;;;;;;1.23;1.10;;;-1.90;99.90;;;;;;5053642;28;20045;-64
2021/03/06 04:23:33;;;;;;;1.77;1.15;;;-1.90;99.90;;;;;;5053924;28;20671;-64
2021/03/06 04:25:58;;;;;;;0.98;0.90;;;-1.90;99.90;;;;;;5053893;28;20028;-64
2021/03/06 04:28:25;;;;;;;2.28;0.90;;;-1.80;99.90;;;;;;5053763;28;20017;-64
2021/03/06 04:30:50;;;;;;;0.93;0.93;;;-1.80;99.90;;;;;;5053556;28;20484;-64
2021/03/06 04:33:16;;;;;;;1.52;0.80;;;-1.80;99.90;;;;;;5053692;28;20025;-64
2021/03/06 04:35:42;;;;;;;3.00;0.88;;;-1.80;99.90;;;;;;5053632;28;20060;-64
2021/03/06 04:38:07;;;;;;;6.28;0.90;;;-1.70;99.90;;;;;;5053274;28;20059;-64
2021/03/06 04:40:33;;;;;;;0.85;0.80;;;-1.70;99.90;;;;;;5053832;28;20028;-65
2021/03/06 04:42:59;;;;;;;0.88;0.80;;;-1.70;99.90;;;;;;5053370;28;20107;-64
2021/03/06 04:45:25;;;;;;;2.45;1.05;;;-1.70;99.90;;;;;;5053639;28;20027;-64
2021/03/06 04:47:50;;;;;;;3.17;1.33;;;-1.60;99.90;;;;;;5053361;28;20047;-64
2021/03/06 04:50:16;;;;;;;1.00;1.00;;;-1.60;99.90;;;;;;5053497;28;20036;-63
2021/03/06 04:52:42;;;;;;;1.60;1.05;;;-1.60;99.90;;;;;;5053825;28;20017;-63
2021/03/06 04:55:09;;;;;;;1.45;0.80;;;-1.60;99.90;;;;;;5053653;28;20029;-64
2021/03/06 04:57:35;;;;;;;1.30;0.90;;;-1.60;99.90;;;;;;5053613;28;20028;-64
2021/03/06 05:00:03;;;;;;;1.92;0.90;;;-1.60;99.90;;;;;;5053290;28;20432;-64
2021/03/06 05:02:29;;;;;;;1.40;0.90;;;-1.50;99.90;;;;;;5052982;28;20529;-64
2021/03/06 05:04:57;;;;;;;1.15;0.80;;;-1.50;99.90;;;;;;5053230;28;20025;-64
2021/03/06 05:07:22;;;;;;;1.52;0.93;;;-1.50;99.90;;;;;;5052809;28;20040;-64
2021/03/06 05:09:48;;;;;;;1.15;0.75;;;-1.50;99.90;;;;;;5052885;28;20025;-64
2021/03/06 05:12:14;;;;;;;0.98;0.85;;;-1.50;99.90;;;;;;5052732;28;20427;-64
2021/03/06 05:14:39;;;;;;;1.65;0.88;;;-1.50;99.90;;;;;;5053119;28;20377;-64
2021/03/06 05:17:05;;;;;;;1.75;1.10;;;-1.40;99.90;;;;;;5053125;28;20025;-64
2021/03/06 05:19:31;;;;;;;6.10;0.90;;;-1.50;99.90;;;;;;5052583;28;20111;-64
2021/03/06 05:21:57;;;;;;;0.90;0.90;;;-1.50;99.90;;;;;;5052786;28;20025;-64
2021/03/06 05:24:23;;;;;;;1.65;1.20;;;-1.50;99.90;;;;;;5052429;28;20096;-64
2021/03/06 05:27:01;;;;;;;1.48;1.10;;;-1.50;99.90;;;;;;5052855;28;20108;-64
2021/03/06 05:29:27;;;;;;;2.08;1.20;;;-1.50;99.90;;;;;;5052375;28;20060;-66
2021/03/06 05:31:53;;;;;;;1.33;1.02;;;-1.50;99.90;;;;;;5052400;28;20052;-65
2021/03/06 05:34:18;;;;;;;1.70;1.02;;;-1.50;99.90;;;;;;5052376;28;20021;-64
2021/03/06 05:36:44;;;;;;;0.82;0.82;;;-1.50;99.90;;;;;;5051628;28;20032;-65
2021/03/06 05:39:10;;;;;;;0.90;0.90;;;-1.50;99.90;;;;;;5052480;28;20028;-64
2021/03/06 05:41:37;;;;;;;1.10;1.00;;;-1.40;99.90;;;;;;5052169;28;20017;-66
2021/03/06 05:44:03;;;;;;;1.63;0.80;;;-0.90;99.90;;;;;;5052247;28;20037;-64
2021/03/06 05:46:29;;;;;;;1.02;0.80;;;-1.00;99.90;;;;;;5052109;28;20029;-64
2021/03/06 05:48:55;;;;;;;1.48;0.80;;;-1.10;99.90;;;;;;5038749;28;20025;-64
2021/03/06 05:51:22;;;;;;;2.72;1.70;;;-1.20;99.90;;;;;;5042700;28;20425;-66
2021/03/06 05:53:52;;;;;;;7.53;3.67;;;-1.30;99.90;;;;;;5041517;28;20028;-66
2021/03/06 05:56:20;;;;;;;8.70;4.38;;;-1.30;99.90;;;;;;5045327;28;20029;-65
2021/03/06 05:58:48;;;;;;;6.18;3.95;;;-1.40;99.90;;;;;;5043004;28;20033;-64
2021/03/06 06:01:15;;;;;;;4.93;3.42;;;-1.40;99.90;;;;;;5047729;28;20483;-65
2021/03/06 06:03:42;;;;;;;3.67;2.53;;;-1.40;99.90;;;;;;5036553;28;20025;-65
2021/03/06 06:06:13;;;;;;;1.83;1.48;;;-1.40;99.90;;;;;;5047841;28;20548;-65
2021/03/06 06:08:40;;;;;;;0.93;0.80;;;-1.30;99.90;;;;;;5045686;28;20041;-65
2021/03/06 06:11:06;;;;;;;0.90;0.90;;;-1.30;99.90;;;;;;5046068;28;20029;-64
2021/03/06 06:13:31;;;;;;;1.17;0.80;;;-1.30;99.90;;;;;;5043903;28;20466;-65
2021/03/06 06:15:57;;;;;;;0.60;0.60;;;-1.20;99.90;;;;;;5041732;28;20067;-65
2021/03/06 06:18:25;;;;;;;0.95;0.80;;;-1.20;99.90;;;;;;5049350;28;20063;-66
2021/03/06 06:20:50;;;;;;;0.60;0.60;;;-1.10;99.90;;;;;;5050887;28;20541;-65
2021/03/06 06:23:18;;;;;;;1.35;0.77;;;-1.10;99.90;;;;;;5051827;28;20021;-65
2021/03/06 06:25:47;;;;;;;2.65;1.50;;;-1.10;99.90;;;;;;5051979;28;20037;-65
2021/03/06 06:28:13;;;;;;;1.90;1.70;;;-0.90;99.90;;;;;;5051641;28;20032;-65
2021/03/06 06:30:38;;;;;;;3.90;1.27;;;-0.90;99.90;;;;;;5051413;28;20033;-66
2021/03/06 06:33:05;;;;;;;0.80;0.80;;;-0.90;99.90;;;;;;5051397;28;20026;-65
2021/03/06 06:35:42;;;;;;;0.90;0.90;;;-0.90;99.90;;;;;;5051291;28;20115;-66
2021/03/06 06:38:09;;;;;;;1.17;0.90;;;-0.90;99.90;;;;;;5048896;28;20017;-65
2021/03/06 06:40:37;;;;;;;0.80;0.80;;;-0.80;99.90;;;;;;5051268;28;20507;-66
2021/03/06 06:43:21;;;;;;;0.80;0.80;;;-0.80;99.90;;;;;;5051148;28;20056;-65
2021/03/06 06:45:47;;;;;;;0.80;0.80;;;-0.80;99.90;;;;;;5051630;28;20036;-65
2021/03/06 06:48:13;;;;;;;0.65;0.65;;;-0.70;99.90;;;;;;5051771;28;20035;-65
2021/03/06 06:50:39;;;;;;;0.82;0.80;;;-0.70;99.90;;;;;;5051717;28;20037;-70
2021/03/06 06:53:05;;;;;;;0.85;0.65;;;-0.60;99.90;;;;;;5051311;28;20567;-70
2021/03/06 06:55:35;;;;;;;0.70;0.70;;;-0.60;99.90;;;;;;5051290;28;20021;-70
2021/03/06 06:58:01;;;;;;;0.70;0.70;;;-0.50;99.90;;;;;;5051404;28;20377;-70
2021/03/06 07:00:29;;;;;;;0.80;0.80;;;-0.50;99.90;;;;;;5051098;28;20033;-70
2021/03/06 07:02:55;;;;;;;2.00;1.55;;;-0.50;99.90;;;;;;5051122;28;20025;-67
2021/03/06 07:05:27;;;;;;;3.08;2.08;;;0.20;99.90;;;;;;5051362;28;20028;-63
2021/03/06 07:07:53;;;;;;;1.90;1.27;;;0.80;99.90;;;;;;5051140;28;20033;-65
2021/03/06 07:10:21;;;;;;;0.93;0.90;;;0.60;99.90;;;;;;5050647;28;20055;-67
2021/03/06 07:12:58;;;;;;;2.17;1.80;;;0.40;99.90;;;;;;5047666;28;20080;-69
2021/03/06 07:15:26;;;;;;;1.10;1.10;;;0.20;99.90;;;;;;5048333;28;20032;-70
2021/03/06 07:17:54;;;;;;;1.70;1.15;;;0.20;99.90;;;;;;5050486;28;20021;-70
2021/03/06 07:20:20;;;;;;;1.75;1.58;;;0.10;99.90;;;;;;5042764;28;20060;-69
2021/03/06 07:22:46;;;;;;;0.65;0.65;;;0.10;99.90;;;;;;5050411;28;20049;-69
2021/03/06 07:25:12;;;;;;;1.52;1.42;;;0.10;99.90;;;;;;5050543;28;20020;-70
2021/03/06 07:27:38;;;;;;;1.67;1.58;;;0.10;99.90;;;;;;5050407;28;20396;-70
2021/03/06 07:30:08;;;;;;;3.00;2.80;;;0.10;99.90;;;;;;5050801;28;20037;-67
2021/03/06 07:32:39;;;;;;;1.27;1.25;;;0.20;99.90;;;;;;5046945;28;20077;-67
2021/03/06 07:35:08;;;;;;;0.90;0.90;;;0.20;99.90;;;;;;5054309;28;20021;-67
2021/03/06 07:37:36;;;;;;;1.10;0.70;;;0.30;99.90;;;;;;5053856;28;20468;-67
2021/03/06 07:40:04;;;;;;;0.70;0.70;;;0.30;99.90;;;;;;5046406;28;20029;-65
2021/03/06 07:42:37;;;;;;;17.75;9.13;;;0.30;99.90;;;;;;5053169;28;20043;-65
2021/03/06 07:45:05;;;;;;;27.50;12.93;;;0.40;99.90;;;;;;5050308;28;20030;-66
2021/03/06 07:47:37;;;;;;;82.95;32.58;;;0.40;99.90;;;;;;5049735;28;20017;-64
2021/03/06 07:50:05;;;;;;;7.03;3.42;;;0.50;99.90;;;;;;5042976;28;20519;-65
2021/03/06 07:52:32;;;;;;;1.35;1.20;;;0.50;99.90;;;;;;5054007;28;20025;-66
2021/03/06 07:55:01;;;;;;;1.38;1.23;;;0.60;99.90;;;;;;5039348;28;20064;-70
2021/03/06 07:57:28;;;;;;;0.80;0.80;;;0.60;99.90;;;;;;5054286;28;20021;-70
2021/03/06 07:59:55;;;;;;;0.63;0.63;;;0.70;99.90;;;;;;5051481;28;20025;-67
2021/03/06 08:02:33;;;;;;;1.52;1.42;;;1.30;99.90;;;;;;5052440;28;20024;-67
2021/03/06 08:04:59;;;;;;;2.60;2.13;;;1.30;99.90;;;;;;5053453;28;20477;-65
2021/03/06 08:07:39;;;;;;;1.35;1.25;;;1.20;99.90;;;;;;5052426;28;20040;-71
2021/03/06 08:10:05;;;;;;;1.83;1.73;;;1.10;99.90;;;;;;5046977;28;20421;-69
2021/03/06 08:12:32;;;;;;;0.80;0.80;;;1.10;99.90;;;;;;5046707;28;20056;-79
2021/03/06 08:14:58;;;;;;;2.45;1.40;;;1.10;99.90;;;;;;5045773;28;20021;-74
2021/03/06 08:17:32;;;;;;;0.63;0.63;;;1.10;99.90;;;;;;5051640;28;20108;-75
2021/03/06 08:19:58;;;;;;;0.70;0.70;;;1.10;99.90;;;;;;5052258;28;20032;-74
2021/03/06 08:22:23;;;;;;;1.33;0.70;;;1.10;99.90;;;;;;5052947;28;20017;-76
2021/03/06 08:24:49;;;;;;;0.70;0.70;;;1.10;99.90;;;;;;5053685;28;20021;-76
2021/03/06 08:27:16;;;;;;;0.63;0.63;;;1.20;99.90;;;;;;5048342;28;20028;-76
2021/03/06 08:29:43;;;;;;;0.65;0.65;;;1.20;99.90;;;;;;5049484;28;20061;-75
2021/03/06 08:32:25;;;;;;;0.63;0.63;;;1.20;99.90;;;;;;5049901;28;20030;-74
2021/03/06 08:34:53;;;;;;;0.60;0.60;;;1.20;99.90;;;;;;5053427;28;20100;-77
2021/03/06 08:37:19;;;;;;;0.50;0.50;;;1.30;99.90;;;;;;5046408;28;20029;-76
2021/03/06 08:39:57;;;;;;;0.60;0.60;;;1.30;99.90;;;;;;5041998;28;20503;-76
2021/03/06 08:42:37;;;;;;;0.70;0.70;;;1.40;99.90;;;;;;5042643;28;20674;-76
2021/03/06 08:45:10;;;;;;;0.82;0.70;;;1.40;99.90;;;;;;5046663;28;20029;-76
2021/03/06 08:47:42;;;;;;;0.50;0.50;;;1.50;99.90;;;;;;5046925;28;20031;-75
2021/03/06 08:50:19;;;;;;;1.85;0.50;;;1.50;99.90;;;;;;5046393;28;20029;-76
2021/03/06 08:52:56;;;;;;;0.63;0.60;;;1.50;99.90;;;;;;5041253;28;20431;-76
2021/03/06 08:55:23;;;;;;;0.60;0.60;;;1.60;99.90;;;;;;5045976;28;20370;-76
2021/03/06 08:57:49;;;;;;;0.70;0.70;;;1.60;99.90;;;;;;5048418;28;20021;-75
2021/03/06 09:00:17;;;;;;;0.50;0.50;;;1.70;99.90;;;;;;5047723;28;20021;-77
2021/03/06 09:02:43;;;;;;;0.47;0.47;;;1.70;99.90;;;;;;5052938;28;20477;-77
2021/03/06 09:05:14;;;;;;;0.40;0.40;;;1.70;99.90;;;;;;5053471;28;20413;-77
2021/03/06 09:07:44;;;;;;;0.50;0.50;;;1.80;99.90;;;;;;5046340;28;20086;-77
2021/03/06 09:10:33;;;;;;;0.40;0.40;;;1.80;99.90;;;;;;5053073;28;20033;-77
2021/03/06 09:13:20;;;;;;;0.50;0.50;;;1.90;99.90;;;;;;5042130;28;20053;-77
2021/03/06 09:16:03;;;;;;;0.47;0.47;;;1.90;99.90;;;;;;5045652;28;20460;-77
2021/03/06 09:18:31;;;;;;;0.50;0.50;;;2.00;99.90;;;;;;5037981;28;20036;-74
2021/03/06 09:21:00;;;;;;;0.60;0.60;;;2.00;99.90;;;;;;5033059;28;20021;-75
2021/03/06 09:23:37;;;;;;;0.60;0.60;;;2.10;99.90;;;;;;5031777;28;20037;-73
2021/03/06 09:26:09;;;;;;;0.43;0.43;;;2.30;99.90;;;;;;5032984;28;20075;-71
2021/03/06 09:28:35;;;;;;;0.50;0.50;;;2.30;99.90;;;;;;5033066;28;20029;-74
2021/03/06 09:31:17;;;;;;;0.45;0.45;;;2.30;99.90;;;;;;5033158;28;20124;-73
2021/03/06 09:33:44;;;;;;;0.57;0.50;;;2.40;99.90;;;;;;5032982;28;20030;-73
2021/03/06 09:36:16;;;;;;;0.57;0.57;;;2.40;99.90;;;;;;5032993;28;20040;-78
2021/03/06 09:38:52;;;;;;;1.23;0.50;;;2.50;99.90;;;;;;5032865;28;20024;-70
2021/03/06 09:41:21;;;;;;;0.50;0.50;;;2.60;99.90;;;;;;5031693;28;20037;-69
2021/03/06 09:43:54;;;;;;;0.50;0.50;;;2.60;99.90;;;;;;5032796;28;20021;-70
2021/03/06 09:46:27;;;;;;;0.40;0.40;;;2.60;99.90;;;;;;5052104;28;20124;-74
2021/03/06 09:48:57;;;;;;;1.75;0.50;;;2.60;99.90;;;;;;5052152;28;20052;-73
2021/03/06 09:51:36;;;;;;;2.38;0.52;;;2.70;99.90;;;;;;5051851;28;20068;-71
2021/03/06 09:54:02;;;;;;;6.50;1.30;;;2.70;99.90;;;;;;5052597;28;20021;-74
2021/03/06 09:56:28;;;;;;;5.03;1.42;;;3.00;99.90;;;;;;5052407;28;20107;-67
2021/03/06 09:58:58;;;;;;;6.50;1.23;;;6.20;99.90;;;;;;5052430;28;20028;-68
2021/03/06 10:01:24;;;;;;;5.17;0.93;;;9.10;99.90;;;;;;5052699;28;20029;-71
2021/03/06 10:03:50;;;;;;;6.82;0.80;;;10.90;92.10;;;;;;5052443;28;20688;-68
2021/03/06 10:06:19;;;;;;;3.40;0.90;;;12.20;82.50;;;;;;5052500;28;20037;-67
2021/03/06 10:08:49;;;;;;;3.17;0.88;;;13.20;75.80;;;;;;5052740;28;20033;-69
2021/03/06 10:11:15;;;;;;;0.80;0.70;;;13.70;71.30;;;;;;5051986;28;20041;-69
2021/03/06 10:13:43;;;;;;;1.05;0.85;;;14.20;68.40;;;;;;5052395;28;20108;-68
2021/03/06 10:16:09;;;;;;;0.40;0.40;;;14.40;66.70;;;;;;5051630;28;20455;-70
2021/03/06 10:18:41;;;;;;;0.60;0.40;;;12.40;61.50;;;;;;5052883;28;20041;-75
2021/03/06 10:21:17;;;;;;;0.20;0.20;;;9.90;66.60;;;;;;5051521;28;20108;-77
2021/03/06 10:23:43;;;;;;;0.47;0.30;;;8.30;71.80;;;;;;5051825;28;20202;-77
2021/03/06 10:26:27;;;;;;;0.40;0.35;;;7.30;76.10;;;;;;5052454;28;20569;-76
2021/03/06 10:28:58;;;;;;;0.40;0.40;;;6.60;78.80;;;;;;5052094;28;20025;-76
2021/03/06 10:31:44;;;;;;;0.30;0.30;;;6.20;82.20;;;;;;5051979;28;20036;-75
2021/03/06 10:34:25;;;;;;;1.08;0.40;;;5.80;83.70;;;;;;5051903;28;20036;-77
2021/03/06 10:37:13;;;;;;;0.40;0.40;;;5.60;85.50;;;;;;5052282;28;20028;-75
2021/03/06 10:40:04;;;;;;;0.65;0.40;;;5.40;85.10;;;;;;5050766;28;20017;-80
2021/03/06 10:42:52;;;;;;;0.30;0.30;;;5.20;84.10;;;;;;5051854;28;20095;-80
2021/03/06 10:45:29;;;;;;;0.30;0.30;;;5.00;85.40;;;;;;5051988;28;20056;-80
2021/03/06 10:48:00;;;;;;;0.43;0.40;;;4.90;86.90;;;;;;5051964;28;20031;-80
2021/03/06 10:50:31;;;;;;;1.50;0.50;;;4.90;85.80;;;;;;5052048;28;20025;-84
2021/03/06 10:53:20;;;;;;;0.30;0.30;;;4.80;84.60;;;;;;5052077;28;20040;-81
2021/03/06 10:55:48;;;;;;;0.88;0.30;;;4.70;84.80;;;;;;5051657;28;20032;-79
2021/03/06 10:58:14;;;;;;;0.40;0.40;;;4.60;84.90;;;;;;5051999;28;20032;-80
2021/03/06 11:00:43;;;;;;;0.40;0.40;;;4.60;84.70;;;;;;5051717;28;20465;-80
2021/03/06 11:03:10;;;;;;;3.25;0.40;;;4.50;85.10;;;;;;5051948;28;20342;-77
2021/03/06 11:05:38;;;;;;;0.30;0.30;;;4.40;85.00;;;;;;5051854;28;20032;-77
2021/03/06 11:08:14;;;;;;;3.30;0.50;;;4.40;85.80;;;;;;5054762;28;20025;-78
2021/03/06 11:10:45;;;;;;;0.30;0.30;;;4.30;84.80;;;;;;5055552;28;20037;-78
2021/03/06 11:13:11;;;;;;;0.40;0.40;;;4.30;84.30;;;;;;5055610;28;20040;-77
2021/03/06 11:15:46;;;;;;;0.40;0.40;;;4.30;83.00;;;;;;5055604;28;20685;-77
2021/03/06 11:18:12;;;;;;;0.40;0.40;;;4.20;83.10;;;;;;5055583;28;20389;-83
2021/03/06 11:20:38;;;;;;;2.33;0.70;;;4.20;83.20;;;;;;5055421;28;20036;-81
2021/03/06 11:23:07;;;;;;;0.40;0.40;;;4.20;83.60;;;;;;5056506;28;20032;-79
2021/03/06 11:25:33;;;;;;;0.40;0.40;;;4.60;91.90;;;;;;5056775;28;20079;-90
2021/03/06 11:28:06;;;;;;;0.50;0.40;;;4.80;82.00;;;;;;5055682;28;20025;-80
2021/03/06 11:30:41;;;;;;;0.40;0.40;;;4.60;79.90;;;;;;5055195;28;20040;-77
2021/03/06 11:33:09;;;;;;;0.40;0.40;;;4.40;80.00;;;;;;5055319;28;20111;-78
2021/03/06 11:35:36;;;;;;;0.40;0.40;;;4.20;79.70;;;;;;5055376;28;20082;-76
2021/03/06 11:38:03;;;;;;;0.43;0.43;;;4.00;80.90;;;;;;5052973;28;20067;-76
2021/03/06 11:40:31;;;;;;;0.30;0.30;;;4.00;82.60;;;;;;5055354;28;20053;-81
2021/03/06 11:42:57;;;;;;;0.40;0.40;;;3.90;82.10;;;;;;5055210;28;20080;-84
2021/03/06 11:45:23;;;;;;;4.72;0.40;;;3.70;85.80;;;;;;5055149;28;20087;-82
2021/03/06 11:47:51;;;;;;;0.32;0.32;;;3.50;94.80;;;;;;5054930;28;20032;-83
2021/03/06 11:50:19;;;;;;;0.40;0.40;;;3.10;99.90;;;;;;5055206;28;20074;-90
2021/03/06 11:52:46;;;;;;;1.60;0.40;;;2.80;99.90;;;;;;5055269;28;20037;-86
2021/03/06 11:55:13;;;;;;;0.45;0.40;;;2.70;99.90;;;;;;5055395;28;20049;-84
2021/03/06 11:57:39;;;;;;;0.40;0.40;;;2.50;99.90;;;;;;5055272;28;20033;-85
2021/03/06 12:00:13;;;;;;;0.35;0.35;;;2.40;99.90;;;;;;5055171;28;20032;-85
2021/03/06 12:02:39;;;;;;;0.65;0.50;;;2.10;99.90;;;;;;5055096;28;20029;-84
2021/03/06 12:05:07;;;;;;;0.73;0.47;;;1.90;99.90;;;;;;5055143;28;20025;-84
2021/03/06 12:07:33;;;;;;;0.70;0.47;;;1.80;99.90;;;;;;5054594;28;20562;-84
2021/03/06 12:09:59;;;;;;;1.63;0.50;;;1.70;98.50;;;;;;5055052;28;20024;-85
2021/03/06 12:12:25;;;;;;;0.52;0.40;;;1.70;98.20;;;;;;5054524;28;20516;-85
2021/03/06 12:14:50;;;;;;;0.40;0.40;;;1.70;96.60;;;;;;5054572;28;20029;-84
2021/03/06 12:17:16;;;;;;;0.40;0.40;;;1.70;96.80;;;;;;5054719;28;20029;-83
2021/03/06 12:19:42;;;;;;;0.50;0.50;;;1.70;94.60;;;;;;5053350;28;20021;-84
2021/03/06 12:22:08;;;;;;;0.68;0.40;;;1.80;92.20;;;;;;5054896;28;20017;-87
2021/03/06 12:24:33;;;;;;;0.40;0.40;;;1.70;90.10;;;;;;5054948;28;20108;-88
2021/03/06 12:26:59;;;;;;;0.50;0.50;;;1.70;89.00;;;;;;5055483;28;20021;-87
2021/03/06 12:29:25;;;;;;;0.50;0.50;;;1.80;85.60;;;;;;5055097;28;20439;-90
2021/03/06 12:31:51;;;;;;;0.50;0.50;;;1.70;86.50;;;;;;5054921;28;20499;-88
2021/03/06 12:34:17;;;;;;;0.50;0.50;;;1.80;85.20;;;;;;5055055;28;20028;-88
2021/03/06 12:36:44;;;;;;;0.40;0.40;;;1.80;82.10;;;;;;5054057;28;20519;-83
2021/03/06 12:39:10;;;;;;;0.50;0.50;;;1.80;78.70;;;;;;5054377;28;20025;-79
2021/03/06 12:41:36;;;;;;;0.40;0.40;;;1.80;78.10;;;;;;5054399;28;20035;-82
2021/03/06 12:44:02;;;;;;;0.45;0.45;;;1.80;75.30;;;;;;5054949;28;20072;-88
2021/03/06 12:46:29;;;;;;;0.45;0.45;;;1.80;75.10;;;;;;5054654;28;20025;-87
2021/03/06 12:48:55;;;;;;;0.60;0.60;;;1.80;73.80;;;;;;5054200;28;20536;-81
2021/03/06 12:51:21;;;;;;;0.63;0.52;;;1.80;72.20;;;;;;5054208;28;20036;-83
2021/03/06 12:53:47;;;;;;;0.60;0.60;;;1.90;69.70;;;;;;5053732;28;20508;-84
2021/03/06 12:56:12;;;;;;;0.50;0.50;;;1.90;70.50;;;;;;5052858;28;20067;-86
2021/03/06 12:58:38;;;;;;;0.40;0.40;;;1.90;68.20;;;;;;5053976;28;20381;-86
2021/03/06 13:01:04;;;;;;;0.50;0.50;;;1.90;63.00;;;;;;5053730;28;20100;-83
2021/03/06 13:03:30;;;;;;;0.50;0.50;;;2.60;69.30;;;;;;5053903;28;20044;-83
2021/03/06 13:05:55;;;;;;;0.40;0.40;;;2.40;60.80;;;;;;5053770;28;20021;-83
2021/03/06 13:08:21;;;;;;;0.50;0.50;;;2.10;60.10;;;;;;5053734;28;20063;-83
2021/03/06 13:10:47;;;;;;;0.55;0.55;;;1.80;59.50;;;;;;5053403;28;20025;-83
2021/03/06 13:13:13;;;;;;;1.10;0.60;;;1.70;60.80;;;;;;5053376;28;20440;-83
2021/03/06 13:15:40;;;;;;;0.80;0.60;;;1.60;59.70;;;;;;5053488;28;20036;-82
2021/03/06 13:18:07;;;;;;;4.10;0.50;;;1.50;58.60;;;;;;5053435;28;20385;-81
2021/03/06 13:20:33;;;;;;;0.40;0.40;;;1.30;59.10;;;;;;5053529;28;20036;-82
2021/03/06 13:22:58;;;;;;;0.75;0.60;;;1.20;59.70;;;;;;5053379;28;20021;-82
2021/03/06 13:25:24;;;;;;;1.20;0.85;;;1.10;60.50;;;;;;5053357;28;20087;-82
2021/03/06 13:27:50;;;;;;;0.50;0.50;;;1.00;61.00;;;;;;5053332;28;20021;-82
2021/03/06 13:30:16;;;;;;;0.40;0.40;;;1.00;60.90;;;;;;5052773;28;20383;-82
2021/03/06 13:32:43;;;;;;;0.57;0.52;;;1.00;61.30;;;;;;5053170;28;20381;-85
2021/03/06 13:35:11;;;;;;;2.55;0.50;;;2.00;85.50;;;;;;5053229;28;20417;-85
2021/03/06 13:37:37;;;;;;;4.30;0.85;;;2.00;61.40;;;;;;5052935;28;20036;-81
2021/03/06 13:40:07;;;;;;;3.53;0.50;;;1.60;60.50;;;;;;5053187;28;20031;-84
2021/03/06 13:42:33;;;;;;;0.50;0.50;;;1.40;61.10;;;;;;5054124;28;20471;-84
2021/03/06 13:44:58;;;;;;;1.25;0.60;;;1.20;60.50;;;;;;5052784;28;20017;-83
2021/03/06 13:47:24;;;;;;;1.30;0.55;;;1.10;60.30;;;;;;5053026;28;20047;-82
2021/03/06 13:49:50;;;;;;;0.60;0.60;;;1.10;61.10;;;;;;5052929;28;20500;-83
2021/03/06 13:52:16;;;;;;;0.68;0.60;;;1.00;60.10;;;;;;5052728;28;20052;-83
2021/03/06 13:54:41;;;;;;;2.83;0.60;;;1.00;59.90;;;;;;5052697;28;20025;-81
2021/03/06 13:57:07;;;;;;;0.60;0.60;;;0.90;59.10;;;;;;5052743;28;20453;-81
2021/03/06 13:59:33;;;;;;;0.60;0.60;;;0.90;59.30;;;;;;5052545;28;20108;-86
2021/03/06 14:01:59;;;;;;;0.50;0.50;;;0.90;57.70;;;;;;5052708;28;20388;-87
2021/03/06 14:04:24;;;;;;;3.78;0.80;;;0.80;58.40;;;;;;5053293;28;20021;-88
2021/03/06 14:06:50;;;;;;;0.60;0.60;;;0.70;57.30;;;;;;5053110;28;20128;-87
2021/03/06 14:09:16;;;;;;;1.30;1.20;;;0.70;57.50;;;;;;5053145;28;20028;-87
2021/03/06 14:11:42;;;;;;;0.60;0.60;;;0.60;57.50;;;;;;5052631;28;20443;-87
2021/03/06 14:14:08;;;;;;;0.65;0.60;;;0.60;56.50;;;;;;5052655;28;20051;-73
2021/03/06 14:16:34;;;;;;;1.00;0.57;;;0.50;57.50;;;;;;5052617;28;20033;-82
2021/03/06 14:19:00;;;;;;;1.30;0.50;;;0.50;58.00;;;;;;5052182;28;20112;-84
2021/03/06 14:21:26;;;;;;;0.75;0.75;;;0.50;56.90;;;;;;5052239;28;20017;-87
2021/03/06 14:23:52;;;;;;;1.10;0.60;;;0.40;55.90;;;;;;5052511;28;20037;-85
2021/03/06 14:26:20;;;;;;;1.08;0.60;;;0.40;55.80;;;;;;5052812;28;20035;-86
2021/03/06 14:28:47;;;;;;;5.97;0.80;;;0.30;56.00;;;;;;5052452;28;20388;-86
2021/03/06 14:31:13;;;;;;;1.10;0.70;;;0.30;56.50;;;;;;5052083;28;20503;-85
2021/03/06 14:33:38;;;;;;;0.50;0.50;;;0.30;56.20;;;;;;5052212;28;20029;-85
2021/03/06 14:36:04;;;;;;;0.55;0.55;;;0.30;56.70;;;;;;5052260;28;20551;-86
2021/03/06 14:38:30;;;;;;;0.70;0.70;;;0.30;55.90;;;;;;5052304;28;20055;-80
2021/03/06 14:40:56;;;;;;;0.90;0.82;;;0.20;55.30;;;;;;5051775;28;20048;-81
2021/03/06 14:43:22;;;;;;;0.70;0.70;;;0.20;55.60;;;;;;5051683;28;20033;-78
2021/03/06 14:45:49;;;;;;;1.20;0.60;;;0.10;54.00;;;;;;5052291;28;20047;-77
2021/03/06 14:48:15;;;;;;;0.60;0.60;;;0.00;53.60;;;;;;5052306;28;20025;-77
2021/03/06 14:50:41;;;;;;;0.60;0.60;;;0.00;53.00;;;;;;5051797;28;20538;-77
2021/03/06 14:53:07;;;;;;;1.45;0.70;;;0.00;53.10;;;;;;5051920;28;20124;-77
2021/03/06 14:55:32;;;;;;;1.02;0.70;;;-0.10;54.30;;;;;;5051836;28;20060;-78
2021/03/06 14:57:59;;;;;;;1.50;0.82;;;-0.10;55.40;;;;;;5051933;28;20064;-77
2021/03/06 15:00:25;;;;;;;1.20;0.60;;;-0.10;56.50;;;;;;5052179;28;20036;-78
2021/03/06 15:02:51;;;;;;;1.48;0.60;;;-0.20;55.40;;;;;;5051638;28;20021;-80
2021/03/06 15:05:18;;;;;;;0.60;0.60;;;-0.20;56.00;;;;;;5052045;28;20084;-78
2021/03/06 15:07:44;;;;;;;0.60;0.60;;;-0.30;56.70;;;;;;5051390;28;20488;-80
2021/03/06 15:10:11;;;;;;;1.08;0.73;;;-0.30;56.90;;;;;;5051930;28;20029;-81
2021/03/06 15:12:37;;;;;;;1.92;0.70;;;-0.40;56.90;;;;;;5051490;28;20443;-80
2021/03/06 15:15:06;;;;;;;2.00;0.73;;;-0.40;56.90;;;;;;5051753;28;20111;-80
2021/03/06 15:17:32;;;;;;;0.80;0.80;;;-0.50;57.50;;;;;;5051409;28;20029;-77
2021/03/06 15:19:58;;;;;;;8.60;1.10;;;-0.50;57.50;;;;;;5051145;28;20408;-77
2021/03/06 15:22:24;;;;;;;4.38;0.82;;;-0.60;57.60;;;;;;5051596;28;20059;-77
2021/03/06 15:24:50;;;;;;;1.77;0.85;;;-0.60;57.90;;;;;;5051397;28;20071;-79
2021/03/06 15:27:15;;;;;;;4.10;0.80;;;-0.70;57.80;;;;;;5053241;28;20029;-81
2021/03/06 15:29:41;;;;;;;1.45;0.80;;;-0.70;58.20;;;;;;5056053;28;20023;-81
2021/03/06 15:32:07;;;;;;;2.70;0.90;;;-0.80;58.40;;;;;;5051564;28;20104;-82
2021/03/06 15:34:33;;;;;;;3.13;0.70;;;-0.80;58.80;;;;;;5051299;28;20013;-80
2021/03/06 15:36:59;;;;;;;1.33;0.80;;;-0.90;58.90;;;;;;5051318;28;20104;-81
2021/03/06 15:39:24;;;;;;;0.95;0.77;;;-0.90;59.20;;;;;;5051683;28;20062;-79
2021/03/06 15:41:50;;;;;;;1.80;0.90;;;-1.00;59.20;;;;;;5051429;28;20472;-80
2021/03/06 15:44:16;;;;;;;1.42;0.80;;;-1.00;59.60;;;;;;5051324;28;20029;-81
2021/03/06 15:46:41;;;;;;;4.25;0.73;;;-1.00;60.10;;;;;;5051277;28;20029;-80
2021/03/06 15:49:07;;;;;;;0.80;0.80;;;-1.00;60.50;;;;;;5051125;28;20039;-83
2021/03/06 15:51:33;;;;;;;0.73;0.73;;;-1.10;60.70;;;;;;5050870;28;20424;-81
2021/03/06 15:53:58;;;;;;;1.10;0.70;;;-1.10;60.90;;;;;;5053638;28;20112;-82
2021/03/06 15:56:24;;;;;;;3.83;1.00;;;-1.10;61.20;;;;;;5055086;28;20033;-82
2021/03/06 15:58:50;;;;;;;0.85;0.63;;;-1.10;61.80;;;;;;5054771;28;20025;-81
2021/03/06 16:01:18;;;;;;;2.00;0.80;;;-1.00;64.70;;;;;;5055273;28;20025;-76
2021/03/06 16:03:43;;;;;;;2.25;0.93;;;-1.10;62.50;;;;;;5054623;28;20032;-83
2021/03/06 16:06:09;;;;;;;2.97;0.82;;;-1.10;62.60;;;;;;5054851;28;20033;-82
2021/03/06 16:08:42;;;;;;;1.77;0.75;;;-1.20;62.90;;;;;;5054713;28;20020;-80
2021/03/06 16:11:08;;;;;;;1.70;0.95;;;-1.20;63.40;;;;;;5054543;28;20033;-81
2021/03/06 16:13:35;;;;;;;1.88;0.82;;;-1.20;63.90;;;;;;5055528;28;20029;-83
2021/03/06 16:16:01;;;;;;;1.65;0.88;;;-0.90;78.60;;;;;;5054147;28;20059;-75
2021/03/06 16:18:26;;;;;;;2.30;1.20;;;-0.10;69.20;;;;;;5054643;28;20025;-74
2021/03/06 16:20:52;;;;;;;0.88;0.88;;;-0.60;65.50;;;;;;5054491;28;20024;-74
2021/03/06 16:23:18;;;;;;;0.75;0.75;;;-1.00;67.00;;;;;;5054501;28;20025;-73
2021/03/06 16:25:44;;;;;;;4.75;1.02;;;-1.40;70.70;;;;;;5054377;28;20032;-74
2021/03/06 16:28:10;;;;;;;11.18;1.00;;;-1.70;75.30;;;;;;5054338;28;20031;-76
2021/03/06 16:30:36;;;;;;;5.75;1.15;;;-2.00;80.00;;;;;;5054256;28;20040;-74
2021/03/06 16:33:03;;;;;;;9.18;1.15;;;-2.20;84.60;;;;;;5054052;28;20029;-74
2021/03/06 16:35:28;;;;;;;4.93;1.05;;;-2.20;88.60;;;;;;5054131;28;20018;-74
2021/03/06 16:37:54;;;;;;;5.38;1.15;;;-2.30;87.90;;;;;;5053395;28;20024;-74
2021/03/06 16:40:20;;;;;;;5.10;1.70;;;-2.40;89.00;;;;;;5051473;28;20163;-73
2021/03/06 16:42:45;;;;;;;3.15;1.55;;;-2.30;88.80;;;;;;5053949;28;20031;-74
2021/03/06 16:45:11;;;;;;;5.70;1.77;;;-2.30;86.90;;;;;;5053884;28;20021;-80
2021/03/06 16:47:37;;;;;;;4.00;1.10;;;-1.80;99.10;;;;;;5054167;28;20112;-79
2021/03/06 16:50:04;;;;;;;3.38;1.10;;;-0.90;94.00;;;;;;5053619;28;20524;-78
2021/03/06 16:52:30;;;;;;;3.30;1.30;;;-1.10;81.50;;;;;;5053915;28;20036;-79
2021/03/06 16:54:56;;;;;;;5.05;1.25;;;-1.50;79.50;;;;;;5061444;28;20020;-79
2021/03/06 16:57:21;;;;;;;4.00;0.98;;;-1.70;78.30;;;;;;5054136;28;20027;-79
2021/03/06 16:59:47;;;;;;;3.63;1.10;;;-1.80;78.30;;;;;;5053607;28;20028;-78
2021/03/06 17:02:13;;;;;;;1.92;1.00;;;-1.90;78.20;;;;;;5053698;28;20449;-79
2021/03/06 17:04:39;;;;;;;0.98;0.73;;;-2.00;78.40;;;;;;5052928;28;20028;-77
2021/03/06 17:07:05;;;;;;;3.33;0.90;;;-2.00;78.40;;;;;;5053539;28;20036;-78